San Angelo's Hourly Summary for Saturday, July 7, 2018
Hour Temp
(f)
RH
(%)
Solar Rad.
(MJ/m2)
Rainfall
(in)
Wind
(mph)
7/7/2018 12:00 AM 77 54 0 0 3.17
7/7/2018 1:00 AM 75 72 0 0 4.59
7/7/2018 2:00 AM 73 78 0 0 2.52
7/7/2018 3:00 AM 75 73 0 0 2.6
7/7/2018 4:00 AM 75 70 0 0 4.16
7/7/2018 5:00 AM 74 73 0 0 3.9
7/7/2018 6:00 AM 74 75 0 0 3.49
7/7/2018 7:00 AM 73 77 0.01 0 2.61
7/7/2018 8:00 AM 73 75 0.33 0 3.83
7/7/2018 9:00 AM 76 67 1.07 0 5.2
7/7/2018 10:00 AM 77 66 1.38 0 5.88
7/7/2018 11:00 AM 80 57 2.34 0 5.47
7/7/2018 12:00 PM 83 51 2.52 0 5.74
7/7/2018 1:00 PM 85 46 2.28 0 6.18
7/7/2018 2:00 PM 87 41 2.86 0 7.6
7/7/2018 3:00 PM 90 37 3.14 0 7.67
7/7/2018 4:00 PM 91 32 2.47 0 8.56
7/7/2018 5:00 PM 91 32 1.51 0 9.17
7/7/2018 6:00 PM 91 30 2.2 0 10.88
7/7/2018 7:00 PM 86 44 0.8 0 10.07
7/7/2018 8:00 PM 85 44 0.29 0 6.14
7/7/2018 9:00 PM 83 47 0.05 0 4.39
7/7/2018 10:00 PM 79 49 0 0 3.93
7/7/2018 11:00 PM 76 66 0 0 1.27
Data Summary 80 56 23.25 0.00 5.38